This is the latest recevied weather packets stored in our database for station/object FW1079. If no packets are shown the sender has not sent any weather packets the latest 10 day(s).
| Time | Temp. | Humidity | Pressure | Rain* | Wind** | Luminosity | Snow |
|---|---|---|---|---|---|---|---|
| 1778189970 | 14.44° C | 86% | 1015 hPa | 0 mm | - | - | - |
| 1778189669 | 14.44° C | 86% | 1015 hPa | 0 mm | - | - | - |
| 1778189369 | 14.44° C | 87% | 1015 hPa | 0 mm | - | - | - |
| 1778189069 | 14.44° C | 87% | 1015 hPa | 0 mm | - | - | - |
| 1778188769 | 14.44° C | 87% | 1015 hPa | 0 mm | - | - | - |
| 1778187570 | 13.89° C | 86% | 1015 hPa | 0 mm | - | - | - |
| 1778186969 | 14.44° C | 86% | 1015 hPa | 0 mm | - | - | - |
| 1778186369 | 14.44° C | 86% | 1015 hPa | 0 mm | - | - | - |
| 1778185769 | 14.44° C | 86% | 1015 hPa | 0 mm | - | - | - |
| 1778184570 | 14.44° C | 84% | 1015 hPa | 0 mm | - | - | - |
| 1778181570 | 15.56° C | 80% | 1015 hPa | 0 mm | - | - | - |
| 1778181269 | 15.56° C | 79% | 1014 hPa | 0 mm | - | - | - |
| 1778180969 | 15.56° C | 78% | 1014 hPa | 0 mm | - | - | - |
| 1778180672 | 16.11° C | 76% | 1014 hPa | 0 mm | - | - | - |
| 1778180072 | 16.67° C | 73% | 1014 hPa | 0 mm | - | - | - |
| 1778177069 | 18.89° C | 64% | 1014 hPa | 0 mm | - | - | - |
| 1778174069 | 19.44° C | 61% | 1014 hPa | 0 mm | - | - | - |
| 1778171069 | 19.44° C | 61% | 1014 hPa | 0 mm | - | - | - |
| 1778170170 | 20° C | 62% | 1014 hPa | 0 mm | - | - | - |
| 1778169573 | 20° C | 61% | 1014 hPa | 0 mm | - | - | - |
| 1778168672 | 20.56° C | 60% | 1014 hPa | 0 mm | - | - | - |
| 1778165669 | 20.56° C | 59% | 1014 hPa | 0 mm | - | - | - |
| 1778165069 | 20.56° C | 60% | 1014 hPa | 0 mm | - | - | - |
| 1778163272 | 21.11° C | 60% | 1014 hPa | 0 mm | - | - | - |
| 1778161469 | 20.56° C | 61% | 1014 hPa | 0 mm | - | - | - |
* Rain latest hour (hover to see other rain measurements)
** Current wind speed in m/s (hover to see current wind gust speed)